FranceFixed distance
Luchon Aneto Trail - L'Ultra Lat
6–7 Jul2024
Distance
85km
Finishers
273238 men35 women
Winning time
6:48:30h
Median pace
7.83km/h
Pace distribution
273 finishers · 5.96–12.48 km/h · mean 8.01
Every finisher ran the same 85 km course, so these paces are directly comparable.
Histogram of finisher pace. 273 finishers ranged from 5.96 to 12.48 kilometres per hour, with a mean of 8.01 and a median of 7.83. The busiest band is 7.5 to 8.0 kilometres per hour, with 49 finishers.
Results
Ranks 51–100 of 273
| Rank | Runner | Time | Pace | Cat. | Placing |
|---|---|---|---|---|---|
| 51 | CAP Endurance | 9:22:55h | 9.06 | W23 | 6th F · 3rd W23 |
| 51 | CAP Endurance | 9:22:55h | 9.06 | M45 | 46th M · 6th M45 |
| 53 | JOG Gatine Parthenay | 9:26:42h | 9.00 | M40 | 47th M · 12th M40 |
| 54 | 9:28:50h | 8.97 | W35 | 7th F · 2nd W35 | |
| 55 | 9:28:52h | 8.96 | M40 | 48th M · 13th M40 | |
| 56 | Outdoor Club Herblinois | 9:31:21h | 8.93 | M40 | 49th M · 14th M40 |
| 57 | *Saint-André-Des-Eaux | 9:31:42h | 8.92 | M23 | 50th M · 13th M23 |
| 58 | RCN | 9:35:12h | 8.87 | M40 | 51st M · 15th M40 |
| 59 | Run Bike Beer | 9:36:22h | 8.85 | M40 | 52nd M · 16th M40 |
| 60 | Uacsavenay | 9:37:20h | 8.83 | M40 | 53rd M · 17th M40 |
| 61 | GSE | 9:37:34h | 8.83 | W23 | 8th F · 4th W23 |
| 62 | Dompierre Course Aventure | 9:37:59h | 8.82 | M23 | 54th M · 14th M23 |
| 63 | Cours’Son Nature | 9:39:24h | 8.80 | M23 | 55th M · 15th M23 |
| 64 | LA Britestole Trail | 9:42:20h | 8.76 | M40 | 56th M · 18th M40 |
| 65 | MTR | 9:43:21h | 8.74 | W45 | 9th F · 1st W45 |
| 66 | Smac/Captrail | 9:43:29h | 8.74 | W45 | 10th F · 2nd W45 |
| 67 | 9:44:23h | 8.73 | M35 | 57th M · 15th M35 | |
| 68 | Magnoac Trail Rando | 9:44:39h | 8.72 | M23 | 58th M · 16th M23 |
| 69 | JOG’Gâtine Parthenay | 9:47:38h | 8.68 | M35 | 59th M · 16th M35 |
| 70 | CS Hennessy | 9:48:27h | 8.67 | M23 | 60th M · 17th M23 |
| 71 | *Moëze | 9:50:30h | 8.64 | M45 | 61st M · 7th M45 |
| 72 | Trail Savates | 9:50:53h | 8.63 | M45 | 62nd M · 8th M45 |
| 73 | Astarac Fond Club | 9:51:13h | 8.63 | M50 | 63rd M · 2nd M50 |
| 74 | 9:51:27h | 8.62 | M35 | 64th M · 17th M35 | |
| 75 | CA Balma | 9:52:02h | 8.61 | M50 | 65th M · 3rd M50 |
| 76 | *Arcizans-Avant | 9:55:38h | 8.56 | M40 | 66th M · 19th M40 |
| 77 | Snrv | 9:56:43h | 8.55 | M40 | 67th M · 20th M40 |
| 78 | 9:57:34h | 8.54 | M45 | 68th M · 9th M45 | |
| 79 | Asptt Nantes Trail | 9:58:05h | 8.53 | M23 | 69th M · 18th M23 |
| 80 | 9:58:32h | 8.52 | M23 | 70th M · 19th M23 | |
| 81 | Esprit Sport(S) | 9:59:44h | 8.50 | M40 | 71st M · 21st M40 |
| 82 | 10:00:48h | 8.49 | M23 | 72nd M · 20th M23 | |
| 83 | AR SUD LAC | 10:01:23h | 8.48 | M45 | 73rd M · 10th M45 |
| 83 | A R SUD LAC | 10:01:23h | 8.48 | M45 | 73rd M · 10th M45 |
| 85 | Patatrail Luchon | 10:01:24h | 8.48 | W23 | 11th F · 5th W23 |
| 86 | Asptt Fougères | 10:03:26h | 8.45 | M40 | 75th M · 22nd M40 |
| 87 | *Aigrefeuille-Sur-Maine | 10:05:13h | 8.43 | M40 | 76th M · 23rd M40 |
| 88 | Lille Triathlon | 10:06:55h | 8.40 | M23 | 77th M · 21st M23 |
| 89 | Club Mon Aventura | 10:07:56h | 8.39 | M45 | 78th M · 12th M45 |
| 89 | Mon Aventura | 10:07:56h | 8.39 | M50 | 78th M · 4th M50 |
| 91 | 10:08:18h | 8.38 | M40 | 80th M · 24th M40 | |
| 92 | Raid O Cazelles Mecojit | 10:08:30h | 8.38 | M40 | 81st M · 25th M40 |
| 93 | Chourmo Football Club | 10:09:49h | 8.36 | M40 | 82nd M · 26th M40 |
| 94 | Desperado Trail | 10:09:51h | 8.36 | M35 | 83rd M · 18th M35 |
| 95 | *Doulezon | 10:11:36h | 8.34 | MU23 | 84th M · 3rd MU23 |
| 96 | *Brive-La-Gaillarde | 10:11:44h | 8.34 | M23 | 85th M · 22nd M23 |
| 97 | Foulées Portes D'Arièg... | 10:12:10h | 8.33 | M40 | 86th M · 27th M40 |
| 98 | 10:12:19h | 8.33 | M45 | 87th M · 13th M45 | |
| 99 | *Roussillon | 10:13:45h | 8.31 | M35 | 88th M · 19th M35 |
| 100 | 10:16:18h | 8.28 | M35 | 89th M · 20th M35 |
- 51CAP Endurance6th F · 3rd W23Time9:22:55hPace9.06Cat.W23
- 51CAP Endurance46th M · 6th M45Time9:22:55hPace9.06Cat.M45
- 53JOG Gatine Parthenay47th M · 12th M40Time9:26:42hPace9.00Cat.M40
- 547th F · 2nd W35Time9:28:50hPace8.97Cat.W35
- 5548th M · 13th M40Time9:28:52hPace8.96Cat.M40
- 56Outdoor Club Herblinois49th M · 14th M40Time9:31:21hPace8.93Cat.M40
- 57*Saint-André-Des-Eaux50th M · 13th M23Time9:31:42hPace8.92Cat.M23
- 58RCN51st M · 15th M40Time9:35:12hPace8.87Cat.M40
- 59Run Bike Beer52nd M · 16th M40Time9:36:22hPace8.85Cat.M40
- 60Uacsavenay53rd M · 17th M40Time9:37:20hPace8.83Cat.M40
- 61GSE8th F · 4th W23Time9:37:34hPace8.83Cat.W23
- 62Dompierre Course Aventure54th M · 14th M23Time9:37:59hPace8.82Cat.M23
- 63Cours’Son Nature55th M · 15th M23Time9:39:24hPace8.80Cat.M23
- 64LA Britestole Trail56th M · 18th M40Time9:42:20hPace8.76Cat.M40
- 65MTR9th F · 1st W45Time9:43:21hPace8.74Cat.W45
- 66Smac/Captrail10th F · 2nd W45Time9:43:29hPace8.74Cat.W45
- 6757th M · 15th M35Time9:44:23hPace8.73Cat.M35
- 68Magnoac Trail Rando58th M · 16th M23Time9:44:39hPace8.72Cat.M23
- 69JOG’Gâtine Parthenay59th M · 16th M35Time9:47:38hPace8.68Cat.M35
- 70CS Hennessy60th M · 17th M23Time9:48:27hPace8.67Cat.M23
- 71*Moëze61st M · 7th M45Time9:50:30hPace8.64Cat.M45
- 72Trail Savates62nd M · 8th M45Time9:50:53hPace8.63Cat.M45
- 73Astarac Fond Club63rd M · 2nd M50Time9:51:13hPace8.63Cat.M50
- 7464th M · 17th M35Time9:51:27hPace8.62Cat.M35
- 75CA Balma65th M · 3rd M50Time9:52:02hPace8.61Cat.M50
- 76*Arcizans-Avant66th M · 19th M40Time9:55:38hPace8.56Cat.M40
- 77Snrv67th M · 20th M40Time9:56:43hPace8.55Cat.M40
- 7868th M · 9th M45Time9:57:34hPace8.54Cat.M45
- 79Asptt Nantes Trail69th M · 18th M23Time9:58:05hPace8.53Cat.M23
- 8070th M · 19th M23Time9:58:32hPace8.52Cat.M23
- 81Esprit Sport(S)71st M · 21st M40Time9:59:44hPace8.50Cat.M40
- 8272nd M · 20th M23Time10:00:48hPace8.49Cat.M23
- 83AR SUD LAC73rd M · 10th M45Time10:01:23hPace8.48Cat.M45
- 83A R SUD LAC73rd M · 10th M45Time10:01:23hPace8.48Cat.M45
- 85Patatrail Luchon11th F · 5th W23Time10:01:24hPace8.48Cat.W23
- 86Asptt Fougères75th M · 22nd M40Time10:03:26hPace8.45Cat.M40
- 87*Aigrefeuille-Sur-Maine76th M · 23rd M40Time10:05:13hPace8.43Cat.M40
- 88Lille Triathlon77th M · 21st M23Time10:06:55hPace8.40Cat.M23
- 89Club Mon Aventura78th M · 12th M45Time10:07:56hPace8.39Cat.M45
- 89Mon Aventura78th M · 4th M50Time10:07:56hPace8.39Cat.M50
- 9180th M · 24th M40Time10:08:18hPace8.38Cat.M40
- 92Raid O Cazelles Mecojit81st M · 25th M40Time10:08:30hPace8.38Cat.M40
- 93Chourmo Football Club82nd M · 26th M40Time10:09:49hPace8.36Cat.M40
- 94Desperado Trail83rd M · 18th M35Time10:09:51hPace8.36Cat.M35
- 95*Doulezon84th M · 3rd MU23Time10:11:36hPace8.34Cat.MU23
- 96*Brive-La-Gaillarde85th M · 22nd M23Time10:11:44hPace8.34Cat.M23
- 97Foulées Portes D'Arièg...86th M · 27th M40Time10:12:10hPace8.33Cat.M40
- 9887th M · 13th M45Time10:12:19hPace8.33Cat.M45
- 99*Roussillon88th M · 19th M35Time10:13:45hPace8.31Cat.M35
- 10089th M · 20th M35Time10:16:18hPace8.28Cat.M35
Showing ranks 51–100 of 273